sensor_id;sensor_type;location;lat;lon;timestamp;P1;durP1;ratioP1;P2;durP2;ratioP2
5499;SDS011;2772;42.700;23.304;2024-02-21T00:00:07;6.00;;;4.80;;
5499;SDS011;2772;42.700;23.304;2024-02-21T00:02:37;7.17;;;5.20;;
5499;SDS011;2772;42.700;23.304;2024-02-21T00:05:04;12.27;;;7.27;;
5499;SDS011;2772;42.700;23.304;2024-02-21T00:07:31;5.57;;;5.03;;
5499;SDS011;2772;42.700;23.304;2024-02-21T00:09:58;5.70;;;5.10;;
5499;SDS011;2772;42.700;23.304;2024-02-21T00:12:25;5.17;;;4.67;;
5499;SDS011;2772;42.700;23.304;2024-02-21T00:14:52;5.10;;;4.70;;
5499;SDS011;2772;42.700;23.304;2024-02-21T00:17:18;6.80;;;5.00;;
5499;SDS011;2772;42.700;23.304;2024-02-21T00:19:47;5.30;;;4.80;;
5499;SDS011;2772;42.700;23.304;2024-02-21T00:22:13;7.20;;;6.10;;
5499;SDS011;2772;42.700;23.304;2024-02-21T00:24:40;6.43;;;5.07;;
5499;SDS011;2772;42.700;23.304;2024-02-21T00:27:06;5.40;;;4.90;;
5499;SDS011;2772;42.700;23.304;2024-02-21T00:29:33;5.07;;;4.57;;
5499;SDS011;2772;42.700;23.304;2024-02-21T00:32:00;6.30;;;5.20;;
5499;SDS011;2772;42.700;23.304;2024-02-21T00:34:27;6.20;;;4.90;;
5499;SDS011;2772;42.700;23.304;2024-02-21T00:36:55;5.33;;;4.83;;
5499;SDS011;2772;42.700;23.304;2024-02-21T00:39:22;5.07;;;4.57;;
5499;SDS011;2772;42.700;23.304;2024-02-21T00:41:48;5.27;;;4.77;;
5499;SDS011;2772;42.700;23.304;2024-02-21T00:44:15;5.60;;;5.10;;
5499;SDS011;2772;42.700;23.304;2024-02-21T00:46:42;5.73;;;5.07;;
5499;SDS011;2772;42.700;23.304;2024-02-21T00:49:08;6.03;;;3.93;;
5499;SDS011;2772;42.700;23.304;2024-02-21T00:51:35;4.80;;;4.30;;
5499;SDS011;2772;42.700;23.304;2024-02-21T00:54:03;9.27;;;4.50;;
5499;SDS011;2772;42.700;23.304;2024-02-21T00:56:31;5.83;;;4.90;;
5499;SDS011;2772;42.700;23.304;2024-02-21T00:58:57;4.63;;;4.20;;
5499;SDS011;2772;42.700;23.304;2024-02-21T01:01:25;4.67;;;4.20;;
5499;SDS011;2772;42.700;23.304;2024-02-21T01:03:52;4.40;;;4.00;;
5499;SDS011;2772;42.700;23.304;2024-02-21T01:06:19;5.23;;;4.40;;
5499;SDS011;2772;42.700;23.304;2024-02-21T01:08:46;5.80;;;5.10;;
5499;SDS011;2772;42.700;23.304;2024-02-21T01:11:14;5.23;;;4.73;;
5499;SDS011;2772;42.700;23.304;2024-02-21T01:13:41;5.83;;;4.60;;
5499;SDS011;2772;42.700;23.304;2024-02-21T01:16:08;4.93;;;4.47;;
5499;SDS011;2772;42.700;23.304;2024-02-21T01:18:38;5.50;;;4.43;;
5499;SDS011;2772;42.700;23.304;2024-02-21T01:21:05;5.23;;;4.73;;
5499;SDS011;2772;42.700;23.304;2024-02-21T01:23:33;5.47;;;4.53;;
5499;SDS011;2772;42.700;23.304;2024-02-21T01:25:59;6.43;;;4.80;;
5499;SDS011;2772;42.700;23.304;2024-02-21T01:28:27;5.37;;;4.70;;
5499;SDS011;2772;42.700;23.304;2024-02-21T01:30:54;5.23;;;4.73;;
5499;SDS011;2772;42.700;23.304;2024-02-21T01:33:21;6.13;;;4.90;;
5499;SDS011;2772;42.700;23.304;2024-02-21T01:35:48;4.87;;;4.47;;
5499;SDS011;2772;42.700;23.304;2024-02-21T01:38:15;6.40;;;4.83;;
5499;SDS011;2772;42.700;23.304;2024-02-21T01:40:41;6.00;;;4.87;;
5499;SDS011;2772;42.700;23.304;2024-02-21T01:43:15;7.23;;;5.00;;
5499;SDS011;2772;42.700;23.304;2024-02-21T01:45:45;7.30;;;4.63;;
5499;SDS011;2772;42.700;23.304;2024-02-21T01:48:14;5.03;;;4.53;;
5499;SDS011;2772;42.700;23.304;2024-02-21T01:50:42;5.13;;;4.20;;
5499;SDS011;2772;42.700;23.304;2024-02-21T01:53:10;4.47;;;4.13;;
5499;SDS011;2772;42.700;23.304;2024-02-21T01:55:42;5.20;;;4.70;;
5499;SDS011;2772;42.700;23.304;2024-02-21T01:58:09;4.80;;;4.40;;
5499;SDS011;2772;42.700;23.304;2024-02-21T02:00:39;4.50;;;4.03;;
5499;SDS011;2772;42.700;23.304;2024-02-21T02:03:10;5.53;;;4.80;;
5499;SDS011;2772;42.700;23.304;2024-02-21T02:05:42;5.60;;;4.90;;
5499;SDS011;2772;42.700;23.304;2024-02-21T02:08:09;6.47;;;5.78;;
5499;SDS011;2772;42.700;23.304;2024-02-21T02:10:36;7.50;;;5.47;;
5499;SDS011;2772;42.700;23.304;2024-02-21T02:13:03;5.80;;;4.90;;
5499;SDS011;2772;42.700;23.304;2024-02-21T02:15:37;7.17;;;5.27;;
5499;SDS011;2772;42.700;23.304;2024-02-21T02:18:04;6.03;;;4.87;;
5499;SDS011;2772;42.700;23.304;2024-02-21T02:20:32;6.50;;;5.47;;
5499;SDS011;2772;42.700;23.304;2024-02-21T02:22:59;5.97;;;4.93;;
5499;SDS011;2772;42.700;23.304;2024-02-21T02:25:27;5.80;;;5.20;;
5499;SDS011;2772;42.700;23.304;2024-02-21T02:27:54;8.70;;;5.80;;
5499;SDS011;2772;42.700;23.304;2024-02-21T02:30:20;7.50;;;5.60;;
5499;SDS011;2772;42.700;23.304;2024-02-21T02:32:47;8.90;;;5.93;;
5499;SDS011;2772;42.700;23.304;2024-02-21T02:35:14;5.60;;;5.10;;
5499;SDS011;2772;42.700;23.304;2024-02-21T02:37:47;8.53;;;6.30;;
5499;SDS011;2772;42.700;23.304;2024-02-21T02:40:14;7.57;;;5.37;;
5499;SDS011;2772;42.700;23.304;2024-02-21T02:42:42;6.57;;;5.80;;
5499;SDS011;2772;42.700;23.304;2024-02-21T02:45:09;8.17;;;6.27;;
5499;SDS011;2772;42.700;23.304;2024-02-21T02:47:36;6.43;;;5.70;;
5499;SDS011;2772;42.700;23.304;2024-02-21T02:50:03;8.63;;;6.30;;
5499;SDS011;2772;42.700;23.304;2024-02-21T02:52:30;7.13;;;6.10;;
5499;SDS011;2772;42.700;23.304;2024-02-21T02:54:57;8.50;;;6.50;;
5499;SDS011;2772;42.700;23.304;2024-02-21T02:57:24;10.00;;;6.40;;
5499;SDS011;2772;42.700;23.304;2024-02-21T02:59:52;10.27;;;6.87;;
5499;SDS011;2772;42.700;23.304;2024-02-21T03:02:19;13.67;;;6.70;;
5499;SDS011;2772;42.700;23.304;2024-02-21T03:04:47;8.87;;;6.33;;
5499;SDS011;2772;42.700;23.304;2024-02-21T03:07:14;9.97;;;6.90;;
5499;SDS011;2772;42.700;23.304;2024-02-21T03:09:41;10.68;;;7.80;;
5499;SDS011;2772;42.700;23.304;2024-02-21T03:12:08;12.43;;;8.47;;
5499;SDS011;2772;42.700;23.304;2024-02-21T03:14:35;7.90;;;6.80;;
5499;SDS011;2772;42.700;23.304;2024-02-21T03:17:03;11.43;;;7.53;;
5499;SDS011;2772;42.700;23.304;2024-02-21T03:19:30;10.10;;;7.63;;
5499;SDS011;2772;42.700;23.304;2024-02-21T03:21:56;11.43;;;7.57;;
5499;SDS011;2772;42.700;23.304;2024-02-21T03:24:23;13.97;;;7.10;;
5499;SDS011;2772;42.700;23.304;2024-02-21T03:26:50;8.83;;;7.00;;
5499;SDS011;2772;42.700;23.304;2024-02-21T03:29:17;10.60;;;7.80;;
5499;SDS011;2772;42.700;23.304;2024-02-21T03:31:43;10.43;;;7.43;;
5499;SDS011;2772;42.700;23.304;2024-02-21T03:34:11;12.13;;;7.80;;
5499;SDS011;2772;42.700;23.304;2024-02-21T03:36:38;12.87;;;7.83;;
5499;SDS011;2772;42.700;23.304;2024-02-21T03:39:05;12.50;;;7.83;;
5499;SDS011;2772;42.700;23.304;2024-02-21T03:41:33;11.43;;;7.90;;
5499;SDS011;2772;42.700;23.304;2024-02-21T03:43:59;11.30;;;7.47;;
5499;SDS011;2772;42.700;23.304;2024-02-21T03:46:26;11.20;;;7.67;;
5499;SDS011;2772;42.700;23.304;2024-02-21T03:48:53;9.73;;;7.47;;
5499;SDS011;2772;42.700;23.304;2024-02-21T03:51:21;10.47;;;7.70;;
5499;SDS011;2772;42.700;23.304;2024-02-21T03:53:48;9.10;;;7.00;;
5499;SDS011;2772;42.700;23.304;2024-02-21T03:56:15;10.67;;;7.53;;
5499;SDS011;2772;42.700;23.304;2024-02-21T03:58:41;10.87;;;7.90;;
5499;SDS011;2772;42.700;23.304;2024-02-21T04:01:08;12.50;;;8.47;;
5499;SDS011;2772;42.700;23.304;2024-02-21T04:03:35;11.87;;;7.57;;
5499;SDS011;2772;42.700;23.304;2024-02-21T04:06:02;11.10;;;7.30;;
5499;SDS011;2772;42.700;23.304;2024-02-21T04:08:31;11.53;;;7.40;;
5499;SDS011;2772;42.700;23.304;2024-02-21T04:10:57;9.57;;;7.30;;
5499;SDS011;2772;42.700;23.304;2024-02-21T04:13:24;11.20;;;8.60;;
5499;SDS011;2772;42.700;23.304;2024-02-21T04:15:51;10.47;;;7.53;;
5499;SDS011;2772;42.700;23.304;2024-02-21T04:18:17;11.83;;;7.67;;
5499;SDS011;2772;42.700;23.304;2024-02-21T04:20:44;9.90;;;7.70;;
5499;SDS011;2772;42.700;23.304;2024-02-21T04:23:11;10.50;;;7.83;;
5499;SDS011;2772;42.700;23.304;2024-02-21T04:25:39;10.10;;;7.60;;
5499;SDS011;2772;42.700;23.304;2024-02-21T04:28:06;13.37;;;7.90;;
5499;SDS011;2772;42.700;23.304;2024-02-21T04:30:32;11.67;;;7.90;;
5499;SDS011;2772;42.700;23.304;2024-02-21T04:32:59;9.57;;;7.50;;
5499;SDS011;2772;42.700;23.304;2024-02-21T04:35:26;10.77;;;7.30;;
5499;SDS011;2772;42.700;23.304;2024-02-21T04:37:52;13.10;;;8.20;;
5499;SDS011;2772;42.700;23.304;2024-02-21T04:40:19;11.77;;;8.27;;
5499;SDS011;2772;42.700;23.304;2024-02-21T04:42:47;13.83;;;8.00;;
5499;SDS011;2772;42.700;23.304;2024-02-21T04:45:14;16.83;;;8.37;;
5499;SDS011;2772;42.700;23.304;2024-02-21T04:47:40;12.33;;;8.60;;
5499;SDS011;2772;42.700;23.304;2024-02-21T04:50:09;14.80;;;8.87;;
5499;SDS011;2772;42.700;23.304;2024-02-21T04:52:36;13.00;;;8.60;;
5499;SDS011;2772;42.700;23.304;2024-02-21T04:55:03;13.97;;;9.27;;
5499;SDS011;2772;42.700;23.304;2024-02-21T04:57:30;15.03;;;8.80;;
5499;SDS011;2772;42.700;23.304;2024-02-21T04:59:58;13.17;;;9.30;;
5499;SDS011;2772;42.700;23.304;2024-02-21T05:02:24;15.63;;;9.03;;
5499;SDS011;2772;42.700;23.304;2024-02-21T05:04:52;15.90;;;9.30;;
5499;SDS011;2772;42.700;23.304;2024-02-21T05:07:19;14.40;;;8.67;;
5499;SDS011;2772;42.700;23.304;2024-02-21T05:09:45;26.33;;;10.03;;
5499;SDS011;2772;42.700;23.304;2024-02-21T05:12:12;12.00;;;8.70;;
5499;SDS011;2772;42.700;23.304;2024-02-21T05:14:39;14.30;;;9.60;;
5499;SDS011;2772;42.700;23.304;2024-02-21T05:17:07;16.73;;;10.23;;
5499;SDS011;2772;42.700;23.304;2024-02-21T05:19:33;13.77;;;10.00;;
5499;SDS011;2772;42.700;23.304;2024-02-21T05:22:00;14.43;;;9.73;;
5499;SDS011;2772;42.700;23.304;2024-02-21T05:24:27;16.63;;;9.67;;
5499;SDS011;2772;42.700;23.304;2024-02-21T05:26:54;12.27;;;9.17;;
5499;SDS011;2772;42.700;23.304;2024-02-21T05:29:20;18.20;;;9.53;;
5499;SDS011;2772;42.700;23.304;2024-02-21T05:31:56;13.93;;;9.63;;
5499;SDS011;2772;42.700;23.304;2024-02-21T05:34:25;14.30;;;10.07;;
5499;SDS011;2772;42.700;23.304;2024-02-21T05:36:51;17.07;;;11.13;;
5499;SDS011;2772;42.700;23.304;2024-02-21T05:39:18;18.53;;;11.10;;
5499;SDS011;2772;42.700;23.304;2024-02-21T05:41:47;14.07;;;9.40;;
5499;SDS011;2772;42.700;23.304;2024-02-21T05:44:14;19.73;;;10.80;;
5499;SDS011;2772;42.700;23.304;2024-02-21T05:46:41;18.07;;;11.63;;
5499;SDS011;2772;42.700;23.304;2024-02-21T05:49:08;15.67;;;9.53;;
5499;SDS011;2772;42.700;23.304;2024-02-21T05:51:36;17.27;;;10.57;;
5499;SDS011;2772;42.700;23.304;2024-02-21T05:54:03;18.17;;;11.40;;
5499;SDS011;2772;42.700;23.304;2024-02-21T05:56:29;23.17;;;11.97;;
5499;SDS011;2772;42.700;23.304;2024-02-21T05:58:56;24.30;;;11.10;;
5499;SDS011;2772;42.700;23.304;2024-02-21T06:01:23;18.97;;;11.10;;
5499;SDS011;2772;42.700;23.304;2024-02-21T06:03:49;19.80;;;11.10;;
5499;SDS011;2772;42.700;23.304;2024-02-21T06:06:16;19.40;;;11.00;;
5499;SDS011;2772;42.700;23.304;2024-02-21T06:08:44;18.80;;;9.97;;
5499;SDS011;2772;42.700;23.304;2024-02-21T06:11:11;18.60;;;11.13;;
5499;SDS011;2772;42.700;23.304;2024-02-21T06:13:40;17.83;;;11.40;;
5499;SDS011;2772;42.700;23.304;2024-02-21T06:16:07;20.73;;;11.10;;
5499;SDS011;2772;42.700;23.304;2024-02-21T06:18:34;18.20;;;10.27;;
5499;SDS011;2772;42.700;23.304;2024-02-21T06:21:02;16.17;;;10.77;;
5499;SDS011;2772;42.700;23.304;2024-02-21T06:23:28;20.10;;;10.93;;
5499;SDS011;2772;42.700;23.304;2024-02-21T06:25:56;18.10;;;10.57;;
5499;SDS011;2772;42.700;23.304;2024-02-21T06:28:23;18.73;;;9.87;;
5499;SDS011;2772;42.700;23.304;2024-02-21T06:30:50;21.10;;;10.70;;
5499;SDS011;2772;42.700;23.304;2024-02-21T06:33:17;18.27;;;10.47;;
5499;SDS011;2772;42.700;23.304;2024-02-21T06:35:47;15.23;;;9.80;;
5499;SDS011;2772;42.700;23.304;2024-02-21T06:38:17;18.57;;;10.23;;
5499;SDS011;2772;42.700;23.304;2024-02-21T06:40:44;17.80;;;10.97;;
5499;SDS011;2772;42.700;23.304;2024-02-21T06:43:16;20.40;;;10.20;;
5499;SDS011;2772;42.700;23.304;2024-02-21T06:45:43;20.33;;;10.23;;
5499;SDS011;2772;42.700;23.304;2024-02-21T06:48:12;15.13;;;9.33;;
5499;SDS011;2772;42.700;23.304;2024-02-21T06:50:39;15.00;;;10.03;;
5499;SDS011;2772;42.700;23.304;2024-02-21T06:53:06;31.13;;;10.03;;
5499;SDS011;2772;42.700;23.304;2024-02-21T06:55:32;20.60;;;10.00;;
5499;SDS011;2772;42.700;23.304;2024-02-21T06:57:59;17.90;;;10.33;;
5499;SDS011;2772;42.700;23.304;2024-02-21T07:00:28;16.90;;;10.80;;
5499;SDS011;2772;42.700;23.304;2024-02-21T07:02:55;29.80;;;10.60;;
5499;SDS011;2772;42.700;23.304;2024-02-21T07:05:21;19.93;;;11.10;;
5499;SDS011;2772;42.700;23.304;2024-02-21T07:07:48;32.40;;;12.53;;
5499;SDS011;2772;42.700;23.304;2024-02-21T07:10:15;32.97;;;11.70;;
5499;SDS011;2772;42.700;23.304;2024-02-21T07:12:41;21.93;;;12.63;;
5499;SDS011;2772;42.700;23.304;2024-02-21T07:15:08;17.03;;;10.83;;
5499;SDS011;2772;42.700;23.304;2024-02-21T07:17:36;24.83;;;10.80;;
5499;SDS011;2772;42.700;23.304;2024-02-21T07:20:03;88.30;;;39.87;;
5499;SDS011;2772;42.700;23.304;2024-02-21T07:22:30;21.87;;;14.30;;
5499;SDS011;2772;42.700;23.304;2024-02-21T07:24:57;34.63;;;12.27;;
5499;SDS011;2772;42.700;23.304;2024-02-21T07:27:24;17.23;;;10.70;;
5499;SDS011;2772;42.700;23.304;2024-02-21T07:29:53;16.43;;;11.00;;
5499;SDS011;2772;42.700;23.304;2024-02-21T07:32:20;16.90;;;10.50;;
5499;SDS011;2772;42.700;23.304;2024-02-21T07:34:48;18.67;;;11.47;;
5499;SDS011;2772;42.700;23.304;2024-02-21T07:37:14;17.43;;;10.57;;
5499;SDS011;2772;42.700;23.304;2024-02-21T07:39:41;17.73;;;10.60;;
5499;SDS011;2772;42.700;23.304;2024-02-21T07:42:08;15.70;;;10.23;;
5499;SDS011;2772;42.700;23.304;2024-02-21T07:44:34;19.70;;;10.53;;
5499;SDS011;2772;42.700;23.304;2024-02-21T07:47:01;25.37;;;10.93;;
5499;SDS011;2772;42.700;23.304;2024-02-21T07:49:28;21.33;;;12.07;;
5499;SDS011;2772;42.700;23.304;2024-02-21T07:51:56;21.17;;;12.00;;
5499;SDS011;2772;42.700;23.304;2024-02-21T07:54:22;29.57;;;13.60;;
5499;SDS011;2772;42.700;23.304;2024-02-21T07:56:49;21.67;;;11.30;;
5499;SDS011;2772;42.700;23.304;2024-02-21T07:59:16;27.37;;;15.17;;
5499;SDS011;2772;42.700;23.304;2024-02-21T08:01:43;19.40;;;11.20;;
5499;SDS011;2772;42.700;23.304;2024-02-21T08:04:10;22.03;;;13.10;;
5499;SDS011;2772;42.700;23.304;2024-02-21T08:06:37;26.43;;;11.43;;
5499;SDS011;2772;42.700;23.304;2024-02-21T08:09:05;16.90;;;11.07;;
5499;SDS011;2772;42.700;23.304;2024-02-21T08:11:32;20.97;;;12.50;;
5499;SDS011;2772;42.700;23.304;2024-02-21T08:13:58;26.50;;;13.77;;
5499;SDS011;2772;42.700;23.304;2024-02-21T08:16:26;17.20;;;10.53;;
5499;SDS011;2772;42.700;23.304;2024-02-21T08:18:53;18.47;;;11.53;;
5499;SDS011;2772;42.700;23.304;2024-02-21T08:21:19;20.50;;;11.77;;
5499;SDS011;2772;42.700;23.304;2024-02-21T08:23:46;24.67;;;12.27;;
5499;SDS011;2772;42.700;23.304;2024-02-21T08:26:18;20.00;;;12.97;;
5499;SDS011;2772;42.700;23.304;2024-02-21T08:28:44;26.77;;;13.80;;
5499;SDS011;2772;42.700;23.304;2024-02-21T08:31:11;21.30;;;11.93;;
5499;SDS011;2772;42.700;23.304;2024-02-21T08:33:44;43.37;;;13.67;;
5499;SDS011;2772;42.700;23.304;2024-02-21T08:36:16;23.63;;;12.90;;
5499;SDS011;2772;42.700;23.304;2024-02-21T08:38:44;16.53;;;11.00;;
5499;SDS011;2772;42.700;23.304;2024-02-21T08:41:11;21.30;;;13.30;;
5499;SDS011;2772;42.700;23.304;2024-02-21T08:43:39;22.67;;;10.87;;
5499;SDS011;2772;42.700;23.304;2024-02-21T08:46:06;24.67;;;12.60;;
5499;SDS011;2772;42.700;23.304;2024-02-21T08:48:33;21.87;;;10.90;;
5499;SDS011;2772;42.700;23.304;2024-02-21T08:50:59;18.70;;;10.67;;
5499;SDS011;2772;42.700;23.304;2024-02-21T08:53:26;21.67;;;11.40;;
5499;SDS011;2772;42.700;23.304;2024-02-21T08:55:53;20.83;;;10.80;;
5499;SDS011;2772;42.700;23.304;2024-02-21T08:58:20;18.03;;;10.90;;
5499;SDS011;2772;42.700;23.304;2024-02-21T09:00:50;17.40;;;10.70;;
5499;SDS011;2772;42.700;23.304;2024-02-21T09:03:17;17.60;;;10.70;;
5499;SDS011;2772;42.700;23.304;2024-02-21T09:05:45;14.93;;;10.20;;
5499;SDS011;2772;42.700;23.304;2024-02-21T09:08:12;19.93;;;11.77;;
5499;SDS011;2772;42.700;23.304;2024-02-21T09:10:39;15.70;;;10.20;;
5499;SDS011;2772;42.700;23.304;2024-02-21T09:13:06;15.23;;;10.53;;
5499;SDS011;2772;42.700;23.304;2024-02-21T09:15:33;18.13;;;10.00;;
5499;SDS011;2772;42.700;23.304;2024-02-21T09:18:01;17.07;;;10.10;;
5499;SDS011;2772;42.700;23.304;2024-02-21T09:20:29;15.10;;;10.80;;
5499;SDS011;2772;42.700;23.304;2024-02-21T09:22:56;17.13;;;11.20;;
5499;SDS011;2772;42.700;23.304;2024-02-21T09:25:23;16.47;;;10.20;;
5499;SDS011;2772;42.700;23.304;2024-02-21T09:27:50;15.80;;;10.50;;
5499;SDS011;2772;42.700;23.304;2024-02-21T09:30:17;19.83;;;11.90;;
5499;SDS011;2772;42.700;23.304;2024-02-21T09:32:45;19.77;;;11.40;;
5499;SDS011;2772;42.700;23.304;2024-02-21T09:35:13;19.80;;;10.80;;
5499;SDS011;2772;42.700;23.304;2024-02-21T09:37:40;20.60;;;11.07;;
5499;SDS011;2772;42.700;23.304;2024-02-21T09:40:07;21.27;;;11.30;;
5499;SDS011;2772;42.700;23.304;2024-02-21T09:42:36;18.10;;;10.63;;
5499;SDS011;2772;42.700;23.304;2024-02-21T09:45:07;26.43;;;12.53;;
5499;SDS011;2772;42.700;23.304;2024-02-21T09:47:38;16.17;;;9.77;;
5499;SDS011;2772;42.700;23.304;2024-02-21T09:50:10;19.30;;;10.10;;
5499;SDS011;2772;42.700;23.304;2024-02-21T09:52:38;20.77;;;11.40;;
5499;SDS011;2772;42.700;23.304;2024-02-21T09:55:06;17.70;;;11.20;;
5499;SDS011;2772;42.700;23.304;2024-02-21T09:57:35;19.17;;;10.67;;
5499;SDS011;2772;42.700;23.304;2024-02-21T10:00:04;16.53;;;10.53;;
5499;SDS011;2772;42.700;23.304;2024-02-21T10:02:33;17.73;;;10.83;;
5499;SDS011;2772;42.700;23.304;2024-02-21T10:05:00;23.47;;;11.30;;
5499;SDS011;2772;42.700;23.304;2024-02-21T10:07:29;16.07;;;9.30;;
5499;SDS011;2772;42.700;23.304;2024-02-21T10:10:01;12.77;;;9.67;;
5499;SDS011;2772;42.700;23.304;2024-02-21T10:12:28;20.10;;;9.90;;
5499;SDS011;2772;42.700;23.304;2024-02-21T10:15:00;11.93;;;9.10;;
5499;SDS011;2772;42.700;23.304;2024-02-21T10:17:27;14.83;;;9.57;;
5499;SDS011;2772;42.700;23.304;2024-02-21T10:19:54;13.77;;;9.30;;
5499;SDS011;2772;42.700;23.304;2024-02-21T10:22:21;14.80;;;8.90;;
5499;SDS011;2772;42.700;23.304;2024-02-21T10:24:48;12.83;;;8.30;;
5499;SDS011;2772;42.700;23.304;2024-02-21T10:27:16;12.53;;;8.40;;
5499;SDS011;2772;42.700;23.304;2024-02-21T10:29:43;12.17;;;7.00;;
5499;SDS011;2772;42.700;23.304;2024-02-21T10:32:17;9.20;;;7.50;;
5499;SDS011;2772;42.700;23.304;2024-02-21T10:34:44;11.00;;;7.73;;
5499;SDS011;2772;42.700;23.304;2024-02-21T10:37:16;13.80;;;7.90;;
5499;SDS011;2772;42.700;23.304;2024-02-21T10:39:43;9.20;;;7.30;;
5499;SDS011;2772;42.700;23.304;2024-02-21T10:42:10;9.03;;;7.13;;
5499;SDS011;2772;42.700;23.304;2024-02-21T10:44:39;12.57;;;7.87;;
5499;SDS011;2772;42.700;23.304;2024-02-21T10:47:07;9.63;;;7.20;;
5499;SDS011;2772;42.700;23.304;2024-02-21T10:49:35;11.40;;;7.10;;
5499;SDS011;2772;42.700;23.304;2024-02-21T10:52:06;6.90;;;5.53;;
5499;SDS011;2772;42.700;23.304;2024-02-21T10:54:43;13.07;;;6.10;;
5499;SDS011;2772;42.700;23.304;2024-02-21T10:57:12;9.63;;;6.60;;
5499;SDS011;2772;42.700;23.304;2024-02-21T10:59:41;9.87;;;6.87;;
5499;SDS011;2772;42.700;23.304;2024-02-21T11:02:10;6.80;;;5.67;;
5499;SDS011;2772;42.700;23.304;2024-02-21T11:04:37;9.90;;;5.60;;
5499;SDS011;2772;42.700;23.304;2024-02-21T11:07:05;7.13;;;5.90;;
5499;SDS011;2772;42.700;23.304;2024-02-21T11:09:33;8.40;;;5.47;;
5499;SDS011;2772;42.700;23.304;2024-02-21T11:12:01;8.40;;;5.10;;
5499;SDS011;2772;42.700;23.304;2024-02-21T11:14:29;5.67;;;5.17;;
5499;SDS011;2772;42.700;23.304;2024-02-21T11:16:59;6.23;;;5.00;;
5499;SDS011;2772;42.700;23.304;2024-02-21T11:19:26;6.60;;;4.50;;
5499;SDS011;2772;42.700;23.304;2024-02-21T11:21:54;4.87;;;4.20;;
5499;SDS011;2772;42.700;23.304;2024-02-21T11:24:25;8.33;;;4.97;;
5499;SDS011;2772;42.700;23.304;2024-02-21T11:26:53;5.10;;;4.60;;
5499;SDS011;2772;42.700;23.304;2024-02-21T11:29:23;10.10;;;5.70;;
5499;SDS011;2772;42.700;23.304;2024-02-21T11:31:51;5.67;;;5.17;;
5499;SDS011;2772;42.700;23.304;2024-02-21T11:34:20;4.87;;;4.37;;
5499;SDS011;2772;42.700;23.304;2024-02-21T11:36:47;10.70;;;5.20;;
5499;SDS011;2772;42.700;23.304;2024-02-21T11:39:18;5.20;;;4.70;;
5499;SDS011;2772;42.700;23.304;2024-02-21T11:41:47;5.47;;;4.93;;
5499;SDS011;2772;42.700;23.304;2024-02-21T11:44:14;6.90;;;5.30;;
5499;SDS011;2772;42.700;23.304;2024-02-21T11:46:40;8.10;;;4.90;;
5499;SDS011;2772;42.700;23.304;2024-02-21T11:49:07;16.50;;;6.60;;
5499;SDS011;2772;42.700;23.304;2024-02-21T11:51:35;7.30;;;5.13;;
5499;SDS011;2772;42.700;23.304;2024-02-21T11:54:02;9.03;;;4.77;;
5499;SDS011;2772;42.700;23.304;2024-02-21T11:56:30;18.00;;;5.50;;
5499;SDS011;2772;42.700;23.304;2024-02-21T11:58:58;8.70;;;5.80;;
5499;SDS011;2772;42.700;23.304;2024-02-21T12:01:25;5.40;;;4.53;;
5499;SDS011;2772;42.700;23.304;2024-02-21T12:03:52;8.77;;;5.40;;
5499;SDS011;2772;42.700;23.304;2024-02-21T12:06:18;9.43;;;5.97;;
5499;SDS011;2772;42.700;23.304;2024-02-21T12:08:48;9.20;;;6.50;;
5499;SDS011;2772;42.700;23.304;2024-02-21T12:11:21;7.70;;;4.47;;
5499;SDS011;2772;42.700;23.304;2024-02-21T12:13:58;6.77;;;5.30;;
5499;SDS011;2772;42.700;23.304;2024-02-21T12:16:26;7.67;;;5.50;;
5499;SDS011;2772;42.700;23.304;2024-02-21T12:18:55;5.90;;;4.93;;
5499;SDS011;2772;42.700;23.304;2024-02-21T12:21:25;9.20;;;6.50;;
5499;SDS011;2772;42.700;23.304;2024-02-21T12:23:55;8.67;;;5.50;;
5499;SDS011;2772;42.700;23.304;2024-02-21T12:26:23;7.75;;;6.05;;
5499;SDS011;2772;42.700;23.304;2024-02-21T12:28:48;5.73;;;5.10;;
5499;SDS011;2772;42.700;23.304;2024-02-21T12:31:15;7.83;;;4.80;;
5499;SDS011;2772;42.700;23.304;2024-02-21T12:33:42;6.50;;;4.60;;
5499;SDS011;2772;42.700;23.304;2024-02-21T12:36:09;20.77;;;6.10;;
5499;SDS011;2772;42.700;23.304;2024-02-21T12:38:36;5.80;;;4.77;;
5499;SDS011;2772;42.700;23.304;2024-02-21T12:41:04;8.70;;;5.60;;
5499;SDS011;2772;42.700;23.304;2024-02-21T12:43:32;7.00;;;5.60;;
5499;SDS011;2772;42.700;23.304;2024-02-21T12:45:59;9.63;;;5.50;;
5499;SDS011;2772;42.700;23.304;2024-02-21T12:48:26;8.03;;;5.60;;
5499;SDS011;2772;42.700;23.304;2024-02-21T12:50:54;8.90;;;6.30;;
5499;SDS011;2772;42.700;23.304;2024-02-21T12:53:20;8.77;;;6.10;;
5499;SDS011;2772;42.700;23.304;2024-02-21T12:55:48;9.33;;;6.50;;
5499;SDS011;2772;42.700;23.304;2024-02-21T12:58:16;11.00;;;7.50;;
5499;SDS011;2772;42.700;23.304;2024-02-21T13:00:43;9.93;;;7.50;;
5499;SDS011;2772;42.700;23.304;2024-02-21T13:03:10;10.17;;;7.63;;
5499;SDS011;2772;42.700;23.304;2024-02-21T13:05:36;8.87;;;5.50;;
5499;SDS011;2772;42.700;23.304;2024-02-21T13:08:04;6.87;;;5.50;;
5499;SDS011;2772;42.700;23.304;2024-02-21T13:10:31;9.70;;;6.60;;
5499;SDS011;2772;42.700;23.304;2024-02-21T13:12:59;8.47;;;6.90;;
5499;SDS011;2772;42.700;23.304;2024-02-21T13:15:27;19.47;;;7.90;;
5499;SDS011;2772;42.700;23.304;2024-02-21T13:17:54;13.07;;;7.50;;
5499;SDS011;2772;42.700;23.304;2024-02-21T13:20:22;11.40;;;7.90;;
5499;SDS011;2772;42.700;23.304;2024-02-21T13:22:48;6.40;;;5.80;;
5499;SDS011;2772;42.700;23.304;2024-02-21T13:25:15;7.43;;;6.10;;
5499;SDS011;2772;42.700;23.304;2024-02-21T13:27:45;6.27;;;5.60;;
5499;SDS011;2772;42.700;23.304;2024-02-21T13:30:12;8.00;;;6.20;;
5499;SDS011;2772;42.700;23.304;2024-02-21T13:32:42;8.77;;;6.57;;
5499;SDS011;2772;42.700;23.304;2024-02-21T13:35:11;8.73;;;6.60;;
5499;SDS011;2772;42.700;23.304;2024-02-21T13:37:37;7.60;;;6.00;;
5499;SDS011;2772;42.700;23.304;2024-02-21T13:40:04;11.97;;;6.27;;
5499;SDS011;2772;42.700;23.304;2024-02-21T13:42:34;7.13;;;5.60;;
5499;SDS011;2772;42.700;23.304;2024-02-21T13:45:01;7.20;;;5.30;;
5499;SDS011;2772;42.700;23.304;2024-02-21T13:47:28;7.27;;;6.13;;
5499;SDS011;2772;42.700;23.304;2024-02-21T13:49:56;10.90;;;6.47;;
5499;SDS011;2772;42.700;23.304;2024-02-21T13:52:22;10.47;;;5.87;;
5499;SDS011;2772;42.700;23.304;2024-02-21T13:54:51;8.73;;;6.20;;
5499;SDS011;2772;42.700;23.304;2024-02-21T13:57:18;9.53;;;6.50;;
5499;SDS011;2772;42.700;23.304;2024-02-21T13:59:44;8.93;;;6.70;;
5499;SDS011;2772;42.700;23.304;2024-02-21T14:02:11;9.53;;;6.70;;
5499;SDS011;2772;42.700;23.304;2024-02-21T14:04:38;7.50;;;5.83;;
5499;SDS011;2772;42.700;23.304;2024-02-21T14:07:06;9.13;;;7.00;;
5499;SDS011;2772;42.700;23.304;2024-02-21T14:09:33;10.27;;;6.63;;
5499;SDS011;2772;42.700;23.304;2024-02-21T14:12:00;12.97;;;5.93;;
5499;SDS011;2772;42.700;23.304;2024-02-21T14:14:27;5.60;;;5.10;;
5499;SDS011;2772;42.700;23.304;2024-02-21T14:16:54;8.63;;;5.70;;
5499;SDS011;2772;42.700;23.304;2024-02-21T14:19:21;6.33;;;5.23;;
5499;SDS011;2772;42.700;23.304;2024-02-21T14:21:48;9.03;;;6.60;;
5499;SDS011;2772;42.700;23.304;2024-02-21T14:24:16;12.80;;;6.43;;
5499;SDS011;2772;42.700;23.304;2024-02-21T14:26:42;10.93;;;6.40;;
5499;SDS011;2772;42.700;23.304;2024-02-21T14:29:09;7.07;;;5.73;;
5499;SDS011;2772;42.700;23.304;2024-02-21T14:31:36;12.70;;;7.20;;
5499;SDS011;2772;42.700;23.304;2024-02-21T14:34:03;9.97;;;7.20;;
5499;SDS011;2772;42.700;23.304;2024-02-21T14:36:29;16.03;;;7.67;;
5499;SDS011;2772;42.700;23.304;2024-02-21T14:38:58;11.07;;;8.13;;
5499;SDS011;2772;42.700;23.304;2024-02-21T14:41:26;10.53;;;7.83;;
5499;SDS011;2772;42.700;23.304;2024-02-21T14:43:53;12.67;;;7.60;;
5499;SDS011;2772;42.700;23.304;2024-02-21T14:46:21;12.63;;;7.30;;
5499;SDS011;2772;42.700;23.304;2024-02-21T14:48:47;9.93;;;6.00;;
5499;SDS011;2772;42.700;23.304;2024-02-21T14:51:14;15.30;;;7.07;;